sensor_id;sensor_type;location;lat;lon;timestamp;temperature;humidity
68433;DHT22;55412;51.350;17.056;2023-05-20T00:00:57;12.10;89.90
68433;DHT22;55412;51.350;17.056;2023-05-20T00:03:23;12.10;90.00
68433;DHT22;55412;51.350;17.056;2023-05-20T00:05:49;12.10;90.30
68433;DHT22;55412;51.350;17.056;2023-05-20T00:08:17;12.10;89.60
68433;DHT22;55412;51.350;17.056;2023-05-20T00:10:43;12.10;89.40
68433;DHT22;55412;51.350;17.056;2023-05-20T00:13:10;12.10;89.50
68433;DHT22;55412;51.350;17.056;2023-05-20T00:15:36;12.10;89.60
68433;DHT22;55412;51.350;17.056;2023-05-20T00:18:02;12.10;90.00
68433;DHT22;55412;51.350;17.056;2023-05-20T00:20:28;12.10;89.60
68433;DHT22;55412;51.350;17.056;2023-05-20T00:22:55;12.10;90.00
68433;DHT22;55412;51.350;17.056;2023-05-20T00:25:21;12.00;89.70
68433;DHT22;55412;51.350;17.056;2023-05-20T00:27:47;12.00;89.90
68433;DHT22;55412;51.350;17.056;2023-05-20T00:30:13;12.00;89.80
68433;DHT22;55412;51.350;17.056;2023-05-20T00:32:39;12.00;90.00
68433;DHT22;55412;51.350;17.056;2023-05-20T00:35:06;12.00;89.90
68433;DHT22;55412;51.350;17.056;2023-05-20T00:37:32;12.00;90.70
68433;DHT22;55412;51.350;17.056;2023-05-20T00:39:58;12.00;90.90
68433;DHT22;55412;51.350;17.056;2023-05-20T00:42:26;12.00;91.30
68433;DHT22;55412;51.350;17.056;2023-05-20T00:44:54;11.90;91.40
68433;DHT22;55412;51.350;17.056;2023-05-20T00:47:24;12.00;91.30
68433;DHT22;55412;51.350;17.056;2023-05-20T00:49:51;12.00;91.40
68433;DHT22;55412;51.350;17.056;2023-05-20T00:52:18;12.00;91.00
68433;DHT22;55412;51.350;17.056;2023-05-20T00:54:44;12.00;91.00
68433;DHT22;55412;51.350;17.056;2023-05-20T00:57:11;12.00;91.30
68433;DHT22;55412;51.350;17.056;2023-05-20T00:59:38;12.00;91.60
68433;DHT22;55412;51.350;17.056;2023-05-20T01:02:04;12.00;91.70
68433;DHT22;55412;51.350;17.056;2023-05-20T01:04:31;12.00;91.70
68433;DHT22;55412;51.350;17.056;2023-05-20T01:07:02;11.90;91.60
68433;DHT22;55412;51.350;17.056;2023-05-20T01:09:30;11.90;91.40
68433;DHT22;55412;51.350;17.056;2023-05-20T01:14:57;11.90;91.80
68433;DHT22;55412;51.350;17.056;2023-05-20T01:17:30;11.90;91.60
68433;DHT22;55412;51.350;17.056;2023-05-20T01:19:58;11.90;91.70
68433;DHT22;55412;51.350;17.056;2023-05-20T01:22:28;11.90;91.60
68433;DHT22;55412;51.350;17.056;2023-05-20T01:24:55;11.90;92.10
68433;DHT22;55412;51.350;17.056;2023-05-20T01:27:22;11.90;91.60
68433;DHT22;55412;51.350;17.056;2023-05-20T01:29:49;11.90;91.70
68433;DHT22;55412;51.350;17.056;2023-05-20T01:32:42;11.90;92.00
68433;DHT22;55412;51.350;17.056;2023-05-20T01:35:09;11.90;91.90
68433;DHT22;55412;51.350;17.056;2023-05-20T01:37:38;11.90;91.80
68433;DHT22;55412;51.350;17.056;2023-05-20T01:40:09;11.90;92.00
68433;DHT22;55412;51.350;17.056;2023-05-20T01:42:37;11.90;92.00
68433;DHT22;55412;51.350;17.056;2023-05-20T01:45:04;11.90;91.90
68433;DHT22;55412;51.350;17.056;2023-05-20T01:47:31;11.90;92.00
68433;DHT22;55412;51.350;17.056;2023-05-20T01:49:57;11.90;92.00
68433;DHT22;55412;51.350;17.056;2023-05-20T01:52:23;11.90;91.60
68433;DHT22;55412;51.350;17.056;2023-05-20T01:54:49;11.90;91.80
68433;DHT22;55412;51.350;17.056;2023-05-20T01:57:22;11.90;91.70
68433;DHT22;55412;51.350;17.056;2023-05-20T01:59:48;11.90;91.40
68433;DHT22;55412;51.350;17.056;2023-05-20T02:02:15;11.90;91.30
68433;DHT22;55412;51.350;17.056;2023-05-20T02:04:46;11.90;91.80
68433;DHT22;55412;51.350;17.056;2023-05-20T02:07:16;11.90;92.00
68433;DHT22;55412;51.350;17.056;2023-05-20T02:09:46;11.90;92.10
68433;DHT22;55412;51.350;17.056;2023-05-20T02:12:13;11.90;92.00
68433;DHT22;55412;51.350;17.056;2023-05-20T02:14:46;11.90;92.00
68433;DHT22;55412;51.350;17.056;2023-05-20T02:17:16;11.90;91.90
68433;DHT22;55412;51.350;17.056;2023-05-20T02:19:43;11.90;92.10
68433;DHT22;55412;51.350;17.056;2023-05-20T02:22:09;11.90;91.90
68433;DHT22;55412;51.350;17.056;2023-05-20T02:24:36;11.90;92.20
68433;DHT22;55412;51.350;17.056;2023-05-20T02:27:02;11.90;91.90
68433;DHT22;55412;51.350;17.056;2023-05-20T02:29:29;11.90;91.90
68433;DHT22;55412;51.350;17.056;2023-05-20T02:31:55;11.90;91.70
68433;DHT22;55412;51.350;17.056;2023-05-20T02:34:21;11.90;91.60
68433;DHT22;55412;51.350;17.056;2023-05-20T02:36:47;11.90;91.50
68433;DHT22;55412;51.350;17.056;2023-05-20T02:39:13;11.90;91.10
68433;DHT22;55412;51.350;17.056;2023-05-20T02:41:40;12.00;91.10
68433;DHT22;55412;51.350;17.056;2023-05-20T02:44:05;12.00;91.00
68433;DHT22;55412;51.350;17.056;2023-05-20T02:46:32;12.00;91.00
68433;DHT22;55412;51.350;17.056;2023-05-20T02:48:58;12.00;91.00
68433;DHT22;55412;51.350;17.056;2023-05-20T02:51:24;12.00;91.00
68433;DHT22;55412;51.350;17.056;2023-05-20T02:53:50;12.00;91.00
68433;DHT22;55412;51.350;17.056;2023-05-20T02:56:16;12.00;91.00
68433;DHT22;55412;51.350;17.056;2023-05-20T02:58:46;12.00;90.80
68433;DHT22;55412;51.350;17.056;2023-05-20T03:01:12;12.00;90.60
68433;DHT22;55412;51.350;17.056;2023-05-20T03:03:38;12.00;90.80
68433;DHT22;55412;51.350;17.056;2023-05-20T03:06:06;12.00;90.60
68433;DHT22;55412;51.350;17.056;2023-05-20T03:08:32;12.00;90.50
68433;DHT22;55412;51.350;17.056;2023-05-20T03:10:59;12.00;90.40
68433;DHT22;55412;51.350;17.056;2023-05-20T03:13:27;12.00;90.40
68433;DHT22;55412;51.350;17.056;2023-05-20T03:15:53;12.00;90.30
68433;DHT22;55412;51.350;17.056;2023-05-20T03:18:19;12.00;90.30
68433;DHT22;55412;51.350;17.056;2023-05-20T03:20:45;12.00;90.20
68433;DHT22;55412;51.350;17.056;2023-05-20T03:23:12;12.10;90.20
68433;DHT22;55412;51.350;17.056;2023-05-20T03:25:38;12.10;90.20
68433;DHT22;55412;51.350;17.056;2023-05-20T03:28:05;12.10;90.10
68433;DHT22;55412;51.350;17.056;2023-05-20T03:30:31;12.10;90.00
68433;DHT22;55412;51.350;17.056;2023-05-20T03:32:58;12.10;89.90
68433;DHT22;55412;51.350;17.056;2023-05-20T03:35:27;12.20;89.90
68433;DHT22;55412;51.350;17.056;2023-05-20T03:37:53;12.20;89.70
68433;DHT22;55412;51.350;17.056;2023-05-20T03:40:20;12.20;89.60
68433;DHT22;55412;51.350;17.056;2023-05-20T03:42:46;12.20;89.70
68433;DHT22;55412;51.350;17.056;2023-05-20T03:45:12;12.20;89.70
68433;DHT22;55412;51.350;17.056;2023-05-20T03:47:38;12.20;89.90
68433;DHT22;55412;51.350;17.056;2023-05-20T03:50:05;12.20;89.80
68433;DHT22;55412;51.350;17.056;2023-05-20T03:52:32;12.20;89.60
68433;DHT22;55412;51.350;17.056;2023-05-20T03:54:59;12.20;89.80
68433;DHT22;55412;51.350;17.056;2023-05-20T03:57:25;12.20;89.90
68433;DHT22;55412;51.350;17.056;2023-05-20T03:59:51;12.20;89.80
68433;DHT22;55412;51.350;17.056;2023-05-20T04:02:17;12.20;89.90
68433;DHT22;55412;51.350;17.056;2023-05-20T04:04:43;12.20;90.00
68433;DHT22;55412;51.350;17.056;2023-05-20T04:07:09;12.20;90.30
68433;DHT22;55412;51.350;17.056;2023-05-20T04:09:37;12.20;90.50
68433;DHT22;55412;51.350;17.056;2023-05-20T04:12:04;12.20;90.40
68433;DHT22;55412;51.350;17.056;2023-05-20T04:14:30;12.20;90.40
68433;DHT22;55412;51.350;17.056;2023-05-20T04:17:03;12.20;90.20
68433;DHT22;55412;51.350;17.056;2023-05-20T04:19:30;12.20;90.10
68433;DHT22;55412;51.350;17.056;2023-05-20T04:21:56;12.20;90.00
68433;DHT22;55412;51.350;17.056;2023-05-20T04:24:22;12.20;90.10
68433;DHT22;55412;51.350;17.056;2023-05-20T04:26:50;12.20;90.10
68433;DHT22;55412;51.350;17.056;2023-05-20T04:29:17;12.30;90.10
68433;DHT22;55412;51.350;17.056;2023-05-20T04:31:46;12.20;90.30
68433;DHT22;55412;51.350;17.056;2023-05-20T04:34:13;12.20;90.30
68433;DHT22;55412;51.350;17.056;2023-05-20T04:36:39;12.20;90.50
68433;DHT22;55412;51.350;17.056;2023-05-20T04:39:05;12.20;90.50
68433;DHT22;55412;51.350;17.056;2023-05-20T04:41:34;12.30;90.70
68433;DHT22;55412;51.350;17.056;2023-05-20T04:44:01;12.30;90.70
68433;DHT22;55412;51.350;17.056;2023-05-20T04:46:28;12.30;90.90
68433;DHT22;55412;51.350;17.056;2023-05-20T04:48:54;12.30;91.00
68433;DHT22;55412;51.350;17.056;2023-05-20T04:51:20;12.30;91.20
68433;DHT22;55412;51.350;17.056;2023-05-20T04:53:46;12.30;91.30
68433;DHT22;55412;51.350;17.056;2023-05-20T04:56:12;12.30;91.20
68433;DHT22;55412;51.350;17.056;2023-05-20T04:58:39;12.30;91.20
68433;DHT22;55412;51.350;17.056;2023-05-20T05:01:06;12.30;91.20
68433;DHT22;55412;51.350;17.056;2023-05-20T05:03:31;12.30;91.30
68433;DHT22;55412;51.350;17.056;2023-05-20T05:05:58;12.30;91.30
68433;DHT22;55412;51.350;17.056;2023-05-20T05:08:24;12.30;91.40
68433;DHT22;55412;51.350;17.056;2023-05-20T05:10:53;12.40;91.20
68433;DHT22;55412;51.350;17.056;2023-05-20T05:13:19;12.40;91.10
68433;DHT22;55412;51.350;17.056;2023-05-20T05:15:45;12.40;91.10
68433;DHT22;55412;51.350;17.056;2023-05-20T05:18:11;12.40;91.20
68433;DHT22;55412;51.350;17.056;2023-05-20T05:20:37;12.40;91.40
68433;DHT22;55412;51.350;17.056;2023-05-20T05:23:03;12.40;91.20
68433;DHT22;55412;51.350;17.056;2023-05-20T05:25:29;12.40;90.90
68433;DHT22;55412;51.350;17.056;2023-05-20T05:27:55;12.40;90.90
68433;DHT22;55412;51.350;17.056;2023-05-20T05:30:21;12.50;91.10
68433;DHT22;55412;51.350;17.056;2023-05-20T05:32:47;12.50;91.20
68433;DHT22;55412;51.350;17.056;2023-05-20T05:35:13;12.50;91.40
68433;DHT22;55412;51.350;17.056;2023-05-20T05:37:39;12.50;91.50
68433;DHT22;55412;51.350;17.056;2023-05-20T05:40:06;12.50;91.30
68433;DHT22;55412;51.350;17.056;2023-05-20T05:42:33;12.50;91.20
68433;DHT22;55412;51.350;17.056;2023-05-20T05:44:59;12.60;91.40
68433;DHT22;55412;51.350;17.056;2023-05-20T05:47:26;12.60;91.60
68433;DHT22;55412;51.350;17.056;2023-05-20T05:49:57;12.60;91.10
68433;DHT22;55412;51.350;17.056;2023-05-20T05:52:25;12.60;90.70
68433;DHT22;55412;51.350;17.056;2023-05-20T05:54:51;12.60;90.80
68433;DHT22;55412;51.350;17.056;2023-05-20T05:57:18;12.60;91.00
68433;DHT22;55412;51.350;17.056;2023-05-20T05:59:44;12.60;90.50
68433;DHT22;55412;51.350;17.056;2023-05-20T06:02:10;12.60;90.30
68433;DHT22;55412;51.350;17.056;2023-05-20T06:04:36;12.60;90.20
68433;DHT22;55412;51.350;17.056;2023-05-20T06:07:02;12.60;90.40
68433;DHT22;55412;51.350;17.056;2023-05-20T06:09:28;12.60;90.20
68433;DHT22;55412;51.350;17.056;2023-05-20T06:11:54;12.70;90.40
68433;DHT22;55412;51.350;17.056;2023-05-20T06:14:20;12.60;90.30
68433;DHT22;55412;51.350;17.056;2023-05-20T06:16:46;12.70;90.30
68433;DHT22;55412;51.350;17.056;2023-05-20T06:19:12;12.70;90.40
68433;DHT22;55412;51.350;17.056;2023-05-20T06:21:39;12.70;90.20
68433;DHT22;55412;51.350;17.056;2023-05-20T06:24:05;12.70;90.30
68433;DHT22;55412;51.350;17.056;2023-05-20T06:26:31;12.80;89.90
68433;DHT22;55412;51.350;17.056;2023-05-20T06:28:58;12.80;89.20
68433;DHT22;55412;51.350;17.056;2023-05-20T06:31:24;12.80;89.80
68433;DHT22;55412;51.350;17.056;2023-05-20T06:33:50;12.70;89.40
68433;DHT22;55412;51.350;17.056;2023-05-20T06:36:16;12.80;89.40
68433;DHT22;55412;51.350;17.056;2023-05-20T06:38:43;12.80;89.10
68433;DHT22;55412;51.350;17.056;2023-05-20T06:41:09;12.80;89.10
68433;DHT22;55412;51.350;17.056;2023-05-20T06:43:35;12.80;88.80
68433;DHT22;55412;51.350;17.056;2023-05-20T06:46:01;12.80;87.30
68433;DHT22;55412;51.350;17.056;2023-05-20T06:48:27;12.70;87.10
68433;DHT22;55412;51.350;17.056;2023-05-20T06:50:53;12.70;87.70
68433;DHT22;55412;51.350;17.056;2023-05-20T06:53:19;12.70;87.60
68433;DHT22;55412;51.350;17.056;2023-05-20T06:55:45;12.70;87.20
68433;DHT22;55412;51.350;17.056;2023-05-20T06:58:11;12.70;87.20
68433;DHT22;55412;51.350;17.056;2023-05-20T07:00:37;12.70;87.00
68433;DHT22;55412;51.350;17.056;2023-05-20T07:03:04;12.80;87.10
68433;DHT22;55412;51.350;17.056;2023-05-20T07:05:30;12.70;87.30
68433;DHT22;55412;51.350;17.056;2023-05-20T07:07:56;12.80;87.10
68433;DHT22;55412;51.350;17.056;2023-05-20T07:10:22;12.80;86.90
68433;DHT22;55412;51.350;17.056;2023-05-20T07:12:48;12.80;86.50
68433;DHT22;55412;51.350;17.056;2023-05-20T07:15:14;12.80;86.70
68433;DHT22;55412;51.350;17.056;2023-05-20T07:17:40;12.80;87.10
68433;DHT22;55412;51.350;17.056;2023-05-20T07:20:07;12.80;86.70
68433;DHT22;55412;51.350;17.056;2023-05-20T07:22:33;12.80;87.10
68433;DHT22;55412;51.350;17.056;2023-05-20T07:24:59;12.80;86.70
68433;DHT22;55412;51.350;17.056;2023-05-20T07:27:25;12.80;87.10
68433;DHT22;55412;51.350;17.056;2023-05-20T07:29:51;12.80;87.00
68433;DHT22;55412;51.350;17.056;2023-05-20T07:32:17;12.80;86.80
68433;DHT22;55412;51.350;17.056;2023-05-20T07:34:43;12.80;86.50
68433;DHT22;55412;51.350;17.056;2023-05-20T07:37:09;12.80;86.80
68433;DHT22;55412;51.350;17.056;2023-05-20T07:39:37;12.90;86.30
68433;DHT22;55412;51.350;17.056;2023-05-20T07:42:03;12.90;85.80
68433;DHT22;55412;51.350;17.056;2023-05-20T07:44:29;12.90;85.50
68433;DHT22;55412;51.350;17.056;2023-05-20T07:46:55;12.90;85.60
68433;DHT22;55412;51.350;17.056;2023-05-20T07:49:21;12.90;85.90
68433;DHT22;55412;51.350;17.056;2023-05-20T07:51:47;12.90;85.40
68433;DHT22;55412;51.350;17.056;2023-05-20T07:54:14;13.00;84.90
68433;DHT22;55412;51.350;17.056;2023-05-20T07:56:41;13.00;85.10
68433;DHT22;55412;51.350;17.056;2023-05-20T07:59:07;13.00;85.60
68433;DHT22;55412;51.350;17.056;2023-05-20T08:01:33;13.10;85.50
68433;DHT22;55412;51.350;17.056;2023-05-20T08:03:59;13.10;84.10
68433;DHT22;55412;51.350;17.056;2023-05-20T08:06:25;13.10;84.10
68433;DHT22;55412;51.350;17.056;2023-05-20T08:08:51;13.10;84.20
68433;DHT22;55412;51.350;17.056;2023-05-20T08:11:20;13.20;84.30
68433;DHT22;55412;51.350;17.056;2023-05-20T08:13:47;13.20;84.20
68433;DHT22;55412;51.350;17.056;2023-05-20T08:16:13;13.20;83.50
68433;DHT22;55412;51.350;17.056;2023-05-20T08:18:40;13.30;83.30
68433;DHT22;55412;51.350;17.056;2023-05-20T08:21:06;13.30;83.30
68433;DHT22;55412;51.350;17.056;2023-05-20T08:23:33;13.40;83.40
68433;DHT22;55412;51.350;17.056;2023-05-20T08:26:00;13.40;83.40
68433;DHT22;55412;51.350;17.056;2023-05-20T08:28:31;13.50;83.20
68433;DHT22;55412;51.350;17.056;2023-05-20T08:30:59;13.50;83.00
68433;DHT22;55412;51.350;17.056;2023-05-20T08:33:26;13.60;82.30
68433;DHT22;55412;51.350;17.056;2023-05-20T08:35:52;13.60;82.40
68433;DHT22;55412;51.350;17.056;2023-05-20T08:38:18;13.70;82.70
68433;DHT22;55412;51.350;17.056;2023-05-20T08:40:44;13.70;81.90
68433;DHT22;55412;51.350;17.056;2023-05-20T08:43:11;13.80;81.60
68433;DHT22;55412;51.350;17.056;2023-05-20T08:45:38;13.80;82.50
68433;DHT22;55412;51.350;17.056;2023-05-20T08:48:04;13.90;83.00
68433;DHT22;55412;51.350;17.056;2023-05-20T08:50:31;14.00;81.50
68433;DHT22;55412;51.350;17.056;2023-05-20T08:52:57;14.00;82.00
68433;DHT22;55412;51.350;17.056;2023-05-20T08:55:32;14.10;81.80
68433;DHT22;55412;51.350;17.056;2023-05-20T08:58:05;14.10;81.80
68433;DHT22;55412;51.350;17.056;2023-05-20T09:00:31;14.20;82.80
68433;DHT22;55412;51.350;17.056;2023-05-20T09:02:58;14.40;81.30
68433;DHT22;55412;51.350;17.056;2023-05-20T09:05:26;14.40;80.30
68433;DHT22;55412;51.350;17.056;2023-05-20T09:07:52;14.50;80.50
68433;DHT22;55412;51.350;17.056;2023-05-20T09:10:28;14.60;80.00
68433;DHT22;55412;51.350;17.056;2023-05-20T09:12:54;14.70;79.40
68433;DHT22;55412;51.350;17.056;2023-05-20T09:15:20;14.70;79.50
68433;DHT22;55412;51.350;17.056;2023-05-20T09:17:49;14.90;79.50
68433;DHT22;55412;51.350;17.056;2023-05-20T09:20:15;15.00;78.20
68433;DHT22;55412;51.350;17.056;2023-05-20T09:22:41;15.00;78.40
68433;DHT22;55412;51.350;17.056;2023-05-20T09:25:08;15.10;78.70
68433;DHT22;55412;51.350;17.056;2023-05-20T09:27:36;15.30;77.70
68433;DHT22;55412;51.350;17.056;2023-05-20T09:30:05;15.40;78.00
68433;DHT22;55412;51.350;17.056;2023-05-20T09:32:32;15.40;75.80
68433;DHT22;55412;51.350;17.056;2023-05-20T09:34:58;15.50;76.70
68433;DHT22;55412;51.350;17.056;2023-05-20T09:37:26;15.60;77.40
68433;DHT22;55412;51.350;17.056;2023-05-20T09:40:00;15.80;77.00
68433;DHT22;55412;51.350;17.056;2023-05-20T09:42:41;15.90;75.40
68433;DHT22;55412;51.350;17.056;2023-05-20T09:45:10;16.00;75.40
68433;DHT22;55412;51.350;17.056;2023-05-20T09:47:40;16.10;75.30
68433;DHT22;55412;51.350;17.056;2023-05-20T09:50:07;16.10;75.10
68433;DHT22;55412;51.350;17.056;2023-05-20T09:52:36;16.20;74.20
68433;DHT22;55412;51.350;17.056;2023-05-20T09:55:04;16.30;72.70
68433;DHT22;55412;51.350;17.056;2023-05-20T09:57:34;16.40;73.50
68433;DHT22;55412;51.350;17.056;2023-05-20T10:00:02;16.50;73.50
68433;DHT22;55412;51.350;17.056;2023-05-20T10:02:33;16.60;73.10
68433;DHT22;55412;51.350;17.056;2023-05-20T10:05:05;16.70;73.10
68433;DHT22;55412;51.350;17.056;2023-05-20T10:16:50;17.20;70.20
68433;DHT22;55412;51.350;17.056;2023-05-20T10:19:35;17.20;71.20
68433;DHT22;55412;51.350;17.056;2023-05-20T10:22:06;17.30;71.60
68433;DHT22;55412;51.350;17.056;2023-05-20T10:24:35;17.40;71.20
68433;DHT22;55412;51.350;17.056;2023-05-20T10:27:04;17.50;69.60
68433;DHT22;55412;51.350;17.056;2023-05-20T10:29:54;17.70;69.90
68433;DHT22;55412;51.350;17.056;2023-05-20T10:32:30;17.70;68.90
68433;DHT22;55412;51.350;17.056;2023-05-20T10:35:03;17.70;70.60
68433;DHT22;55412;51.350;17.056;2023-05-20T10:37:43;17.80;71.30
68433;DHT22;55412;51.350;17.056;2023-05-20T10:40:14;18.10;71.20
68433;DHT22;55412;51.350;17.056;2023-05-20T10:42:41;18.30;69.80
68433;DHT22;55412;51.350;17.056;2023-05-20T10:45:08;18.30;70.20
68433;DHT22;55412;51.350;17.056;2023-05-20T10:47:35;18.30;67.70
68433;DHT22;55412;51.350;17.056;2023-05-20T10:50:02;18.20;67.60
68433;DHT22;55412;51.350;17.056;2023-05-20T10:52:33;18.20;67.10
68433;DHT22;55412;51.350;17.056;2023-05-20T10:55:01;18.20;68.30
68433;DHT22;55412;51.350;17.056;2023-05-20T10:57:30;18.20;68.50
68433;DHT22;55412;51.350;17.056;2023-05-20T10:59:57;18.30;69.00
68433;DHT22;55412;51.350;17.056;2023-05-20T11:02:24;18.30;68.70
68433;DHT22;55412;51.350;17.056;2023-05-20T11:04:56;18.40;68.60
68433;DHT22;55412;51.350;17.056;2023-05-20T11:07:30;18.30;67.40
68433;DHT22;55412;51.350;17.056;2023-05-20T11:09:59;18.20;67.80
68433;DHT22;55412;51.350;17.056;2023-05-20T11:12:26;18.10;69.10
68433;DHT22;55412;51.350;17.056;2023-05-20T11:14:53;18.20;68.90
68433;DHT22;55412;51.350;17.056;2023-05-20T11:17:19;18.30;69.20
68433;DHT22;55412;51.350;17.056;2023-05-20T11:19:46;18.40;67.70
68433;DHT22;55412;51.350;17.056;2023-05-20T11:22:12;18.50;69.50
68433;DHT22;55412;51.350;17.056;2023-05-20T11:24:38;18.50;66.90
68433;DHT22;55412;51.350;17.056;2023-05-20T11:27:06;18.40;68.30
68433;DHT22;55412;51.350;17.056;2023-05-20T11:29:32;18.50;68.60
68433;DHT22;55412;51.350;17.056;2023-05-20T11:31:59;18.50;67.00
68433;DHT22;55412;51.350;17.056;2023-05-20T11:34:31;18.40;68.50
68433;DHT22;55412;51.350;17.056;2023-05-20T11:37:01;18.40;67.90
68433;DHT22;55412;51.350;17.056;2023-05-20T11:39:32;18.50;68.10
68433;DHT22;55412;51.350;17.056;2023-05-20T11:42:11;18.50;68.60
68433;DHT22;55412;51.350;17.056;2023-05-20T11:44:43;18.50;67.70
68433;DHT22;55412;51.350;17.056;2023-05-20T11:47:09;18.60;68.90
68433;DHT22;55412;51.350;17.056;2023-05-20T11:49:39;18.70;68.50
68433;DHT22;55412;51.350;17.056;2023-05-20T11:52:08;18.80;68.20
68433;DHT22;55412;51.350;17.056;2023-05-20T11:54:35;18.90;68.80
68433;DHT22;55412;51.350;17.056;2023-05-20T11:57:01;19.10;68.90
68433;DHT22;55412;51.350;17.056;2023-05-20T11:59:27;19.20;67.80
68433;DHT22;55412;51.350;17.056;2023-05-20T12:01:54;19.30;67.50
68433;DHT22;55412;51.350;17.056;2023-05-20T12:04:20;19.20;67.10
68433;DHT22;55412;51.350;17.056;2023-05-20T12:06:46;19.20;66.10
68433;DHT22;55412;51.350;17.056;2023-05-20T12:09:12;19.10;67.00
68433;DHT22;55412;51.350;17.056;2023-05-20T12:11:39;19.10;66.40
68433;DHT22;55412;51.350;17.056;2023-05-20T12:14:06;19.10;66.30
68433;DHT22;55412;51.350;17.056;2023-05-20T12:16:33;19.10;65.80
68433;DHT22;55412;51.350;17.056;2023-05-20T12:19:00;19.10;66.10
68433;DHT22;55412;51.350;17.056;2023-05-20T12:21:27;19.10;65.70
68433;DHT22;55412;51.350;17.056;2023-05-20T12:23:54;19.00;65.40
68433;DHT22;55412;51.350;17.056;2023-05-20T12:26:26;18.90;66.00
68433;DHT22;55412;51.350;17.056;2023-05-20T12:28:53;18.90;67.40
68433;DHT22;55412;51.350;17.056;2023-05-20T12:31:20;19.10;66.60
68433;DHT22;55412;51.350;17.056;2023-05-20T12:33:46;19.10;66.70
68433;DHT22;55412;51.350;17.056;2023-05-20T12:36:13;19.20;66.40
68433;DHT22;55412;51.350;17.056;2023-05-20T12:38:39;19.20;66.60
68433;DHT22;55412;51.350;17.056;2023-05-20T12:41:05;19.30;67.20
68433;DHT22;55412;51.350;17.056;2023-05-20T12:43:31;19.40;66.40
68433;DHT22;55412;51.350;17.056;2023-05-20T12:46:00;19.40;66.90
68433;DHT22;55412;51.350;17.056;2023-05-20T12:48:26;19.40;66.30
68433;DHT22;55412;51.350;17.056;2023-05-20T12:50:52;19.50;66.10
68433;DHT22;55412;51.350;17.056;2023-05-20T12:53:18;19.50;65.60
68433;DHT22;55412;51.350;17.056;2023-05-20T12:55:44;19.40;65.80
68433;DHT22;55412;51.350;17.056;2023-05-20T12:58:10;19.40;66.60
68433;DHT22;55412;51.350;17.056;2023-05-20T13:00:37;19.40;66.60
68433;DHT22;55412;51.350;17.056;2023-05-20T13:03:03;19.50;67.30
68433;DHT22;55412;51.350;17.056;2023-05-20T13:05:29;19.50;64.80
68433;DHT22;55412;51.350;17.056;2023-05-20T13:07:55;19.40;65.50
68433;DHT22;55412;51.350;17.056;2023-05-20T13:10:21;19.40;65.10
68433;DHT22;55412;51.350;17.056;2023-05-20T13:12:47;19.40;66.20
68433;DHT22;55412;51.350;17.056;2023-05-20T13:15:14;19.40;66.10
68433;DHT22;55412;51.350;17.056;2023-05-20T13:17:40;19.50;65.70
68433;DHT22;55412;51.350;17.056;2023-05-20T13:20:10;19.50;65.50
68433;DHT22;55412;51.350;17.056;2023-05-20T13:22:37;19.50;67.10
68433;DHT22;55412;51.350;17.056;2023-05-20T13:25:04;19.60;67.10
68433;DHT22;55412;51.350;17.056;2023-05-20T13:27:31;19.60;65.50
68433;DHT22;55412;51.350;17.056;2023-05-20T13:29:57;19.50;65.30
68433;DHT22;55412;51.350;17.056;2023-05-20T13:32:23;19.50;65.90
68433;DHT22;55412;51.350;17.056;2023-05-20T13:34:49;19.50;65.80
68433;DHT22;55412;51.350;17.056;2023-05-20T13:37:15;19.50;66.10
68433;DHT22;55412;51.350;17.056;2023-05-20T13:39:44;19.60;65.80
68433;DHT22;55412;51.350;17.056;2023-05-20T13:42:16;19.60;65.70
68433;DHT22;55412;51.350;17.056;2023-05-20T13:44:42;19.60;64.70
68433;DHT22;55412;51.350;17.056;2023-05-20T13:47:11;19.60;65.10
68433;DHT22;55412;51.350;17.056;2023-05-20T13:49:40;19.60;65.30
68433;DHT22;55412;51.350;17.056;2023-05-20T13:52:07;19.60;66.30
68433;DHT22;55412;51.350;17.056;2023-05-20T13:54:33;19.70;65.60
68433;DHT22;55412;51.350;17.056;2023-05-20T13:56:59;19.70;65.10
68433;DHT22;55412;51.350;17.056;2023-05-20T13:59:26;19.70;65.60
68433;DHT22;55412;51.350;17.056;2023-05-20T14:01:53;19.70;65.00
68433;DHT22;55412;51.350;17.056;2023-05-20T14:04:19;19.70;65.60
68433;DHT22;55412;51.350;17.056;2023-05-20T14:06:46;19.60;65.10
68433;DHT22;55412;51.350;17.056;2023-05-20T14:09:12;19.50;65.20
68433;DHT22;55412;51.350;17.056;2023-05-20T14:11:38;19.50;65.70
68433;DHT22;55412;51.350;17.056;2023-05-20T14:14:04;19.40;66.40
68433;DHT22;55412;51.350;17.056;2023-05-20T14:16:31;19.40;65.90
68433;DHT22;55412;51.350;17.056;2023-05-20T14:18:57;19.40;66.10
68433;DHT22;55412;51.350;17.056;2023-05-20T14:21:23;19.40;66.30
68433;DHT22;55412;51.350;17.056;2023-05-20T14:23:49;19.50;66.30
68433;DHT22;55412;51.350;17.056;2023-05-20T14:26:15;19.50;66.60
68433;DHT22;55412;51.350;17.056;2023-05-20T14:28:41;19.50;67.60
68433;DHT22;55412;51.350;17.056;2023-05-20T14:31:07;19.50;66.60
68433;DHT22;55412;51.350;17.056;2023-05-20T14:33:35;19.50;66.30
68433;DHT22;55412;51.350;17.056;2023-05-20T14:36:01;19.50;66.80
68433;DHT22;55412;51.350;17.056;2023-05-20T14:38:27;19.50;65.80
68433;DHT22;55412;51.350;17.056;2023-05-20T14:40:53;19.50;65.90
68433;DHT22;55412;51.350;17.056;2023-05-20T14:43:19;19.50;66.80
68433;DHT22;55412;51.350;17.056;2023-05-20T14:45:46;19.50;66.40
68433;DHT22;55412;51.350;17.056;2023-05-20T14:48:13;19.50;66.30
68433;DHT22;55412;51.350;17.056;2023-05-20T14:50:39;19.60;67.00
68433;DHT22;55412;51.350;17.056;2023-05-20T14:53:06;19.60;66.40
68433;DHT22;55412;51.350;17.056;2023-05-20T14:55:32;19.50;66.20
68433;DHT22;55412;51.350;17.056;2023-05-20T14:57:58;19.60;66.60
68433;DHT22;55412;51.350;17.056;2023-05-20T15:00:24;19.60;66.50
68433;DHT22;55412;51.350;17.056;2023-05-20T15:02:50;19.60;67.00
68433;DHT22;55412;51.350;17.056;2023-05-20T15:05:16;19.60;67.40
68433;DHT22;55412;51.350;17.056;2023-05-20T15:07:42;19.60;66.70
68433;DHT22;55412;51.350;17.056;2023-05-20T15:10:08;19.60;65.70
68433;DHT22;55412;51.350;17.056;2023-05-20T15:12:35;19.60;66.60
68433;DHT22;55412;51.350;17.056;2023-05-20T15:15:00;19.60;67.10
68433;DHT22;55412;51.350;17.056;2023-05-20T15:17:27;19.60;66.70
68433;DHT22;55412;51.350;17.056;2023-05-20T15:19:53;19.60;67.30
68433;DHT22;55412;51.350;17.056;2023-05-20T15:22:19;19.60;67.10
68433;DHT22;55412;51.350;17.056;2023-05-20T15:24:45;19.60;67.10
68433;DHT22;55412;51.350;17.056;2023-05-20T15:27:11;19.60;67.20